Time;durP1;ratioP1;P1;durP2;ratioP2;P2;SDS_P1;SDS_P2;PMS_P1;PMS_P2;Temp;Humidity;BMP_temperature;BMP_pressure;BME280_temperature;BME280_humidity;BME280_pressure;Samples;Min_cycle;Max_cycle;Signal;HPM_P1;HPM_P2
2021/03/03 00:01:00;;;;;;;15.52;10.25;;;4.30;99.90;;;3.58;68.16;102270.16;4991199;28;20165;-47
2021/03/03 00:03:26;;;;;;;17.77;10.25;;;4.20;99.90;;;3.50;68.81;102269.59;4973820;28;20365;-46
2021/03/03 00:05:52;;;;;;;17.48;10.18;;;4.20;99.90;;;3.41;69.02;102267.34;4991543;28;20037;-48
2021/03/03 00:08:18;;;;;;;17.40;10.30;;;4.10;99.90;;;3.44;68.98;102262.09;4991274;28;20167;-48
2021/03/03 00:10:43;;;;;;;19.48;8.18;;;4.10;99.90;;;3.75;67.21;102264.41;4991153;28;20030;-49
2021/03/03 00:13:09;;;;;;;13.02;7.80;;;4.20;99.90;;;4.04;65.86;102265.88;4991622;28;20659;-45
2021/03/03 00:15:35;;;;;;;17.25;7.22;;;4.40;99.90;;;4.00;65.92;102264.31;4991148;28;20045;-46
2021/03/03 00:18:01;;;;;;;13.02;6.78;;;4.50;99.90;;;4.07;65.43;102263.16;4991308;28;20497;-47
2021/03/03 00:20:27;;;;;;;14.35;8.75;;;4.60;99.90;;;3.99;65.79;102265.19;4990917;28;20046;-45
2021/03/03 00:22:53;;;;;;;15.77;8.77;;;4.60;99.90;;;3.92;65.93;102271.47;4989598;28;20031;-46
2021/03/03 00:25:20;;;;;;;14.18;8.68;;;4.50;99.90;;;3.73;66.95;102265.34;4991061;28;20080;-46
2021/03/03 00:27:46;;;;;;;15.68;9.90;;;4.40;99.90;;;3.60;67.57;102270.13;4989569;28;20593;-46
2021/03/03 00:30:14;;;;;;;15.43;7.60;;;4.30;99.90;;;3.53;67.78;102269.50;4990662;28;20117;-46
2021/03/03 00:32:40;;;;;;;15.38;7.25;;;4.20;99.90;;;3.54;67.77;102266.03;4991022;28;20060;-47
2021/03/03 00:35:07;;;;;;;12.48;6.95;;;4.10;99.90;;;3.59;67.33;102266.69;4990844;28;20455;-47
2021/03/03 00:37:33;;;;;;;15.13;8.55;;;4.20;99.90;;;3.55;67.66;102259.97;4990736;28;20044;-47
2021/03/03 00:39:59;;;;;;;16.23;8.70;;;4.20;99.90;;;3.46;68.23;102268.03;4990477;28;20054;-46
2021/03/03 00:42:25;;;;;;;14.23;9.30;;;4.10;99.90;;;3.34;69.00;102264.16;4990618;28;20097;-50
2021/03/03 00:44:50;;;;;;;13.90;6.50;;;4.00;99.90;;;3.49;67.85;102267.09;4990554;28;20069;-48
2021/03/03 00:47:16;;;;;;;14.18;7.45;;;4.00;99.90;;;3.65;66.93;102269.06;4990538;28;20034;-49
2021/03/03 00:49:42;;;;;;;13.05;7.13;;;4.20;99.90;;;3.89;65.98;102264.69;4990676;28;20061;-47
2021/03/03 00:52:08;;;;;;;13.57;8.95;;;4.30;99.90;;;3.62;67.12;102263.16;4990465;28;20342;-50
2021/03/03 00:54:34;;;;;;;13.60;8.52;;;4.30;99.90;;;3.35;68.50;102262.41;4990662;28;20052;-47
2021/03/03 00:57:00;;;;;;;13.95;9.05;;;4.10;99.90;;;3.24;68.67;102261.97;4990404;28;20423;-46
2021/03/03 00:59:26;;;;;;;14.93;9.05;;;3.90;99.90;;;3.26;68.23;102257.63;4989879;28;20066;-49
2021/03/03 01:01:53;;;;;;;16.02;8.30;;;3.90;99.90;;;3.20;68.56;102252.69;4990424;28;20037;-45
2021/03/03 01:04:19;;;;;;;14.65;8.75;;;3.80;99.90;;;3.28;67.90;102250.66;4990610;28;20041;-47
2021/03/03 01:06:45;;;;;;;12.82;8.75;;;3.80;99.90;;;3.48;66.97;102247.34;4990445;28;20026;-44
2021/03/03 01:09:11;;;;;;;14.32;8.30;;;4.00;99.90;;;3.52;66.74;102252.34;4990276;28;20576;-47
2021/03/03 01:11:37;;;;;;;12.60;8.05;;;4.10;99.90;;;3.35;67.51;102244.38;4990426;28;20363;-48
2021/03/03 01:14:03;;;;;;;17.35;8.27;;;4.00;99.90;;;3.25;67.55;102246.47;4988422;28;20034;-49
2021/03/03 01:16:29;;;;;;;14.43;8.25;;;3.90;99.90;;;3.21;67.68;102244.06;4990643;28;20328;-47
2021/03/03 01:18:54;;;;;;;19.05;8.93;;;3.90;99.90;;;3.24;67.38;102243.94;4972465;28;20044;-47
2021/03/03 01:21:20;;;;;;;18.20;9.25;;;3.80;99.90;;;3.24;67.00;102244.78;4989814;28;20149;-47
2021/03/03 01:23:46;;;;;;;15.35;8.75;;;3.80;99.90;;;3.24;66.93;102238.78;4990078;28;20046;-46
2021/03/03 01:26:12;;;;;;;14.93;7.70;;;3.80;99.90;;;3.43;66.00;102242.38;4989821;28;20042;-47
2021/03/03 01:28:38;;;;;;;13.10;7.53;;;3.90;99.90;;;3.36;66.05;102243.47;4990276;28;20045;-45
2021/03/03 01:31:04;;;;;;;13.02;7.65;;;4.00;99.90;;;3.32;66.41;102247.06;4972518;28;20470;-47
2021/03/03 01:33:31;;;;;;;18.20;8.32;;;4.00;99.90;;;3.28;66.57;102237.78;4990021;28;20037;-46
2021/03/03 01:35:57;;;;;;;13.25;7.90;;;3.90;99.90;;;3.31;66.23;102238.50;4972125;28;20046;-50
2021/03/03 01:38:24;;;;;;;13.60;7.35;;;3.90;99.90;;;3.30;66.50;102243.72;4989446;28;20659;-45
2021/03/03 01:40:51;;;;;;;13.15;7.55;;;3.90;99.90;;;3.21;67.04;102239.75;4989494;28;20505;-44
2021/03/03 01:43:18;;;;;;;13.63;8.02;;;3.80;99.90;;;3.13;67.29;102239.16;4989450;28;20534;-47
2021/03/03 01:45:44;;;;;;;12.52;8.32;;;3.70;99.90;;;3.13;67.35;102231.44;4989512;28;20164;-47
2021/03/03 01:48:10;;;;;;;14.75;7.55;;;3.80;99.90;;;3.39;66.13;102230.50;4989516;28;20509;-45
2021/03/03 01:50:40;;;;;;;10.65;6.85;;;3.80;99.90;;;3.57;65.50;102231.56;4989275;28;20054;-45
2021/03/03 01:53:07;;;;;;;18.42;9.23;;;4.00;99.90;;;3.53;65.56;102235.16;4989602;28;20053;-45
2021/03/03 01:55:34;;;;;;;13.80;8.50;;;4.10;99.90;;;3.38;66.39;102235.69;4989243;28;20212;-46
2021/03/03 01:58:03;;;;;;;11.20;6.05;;;4.00;99.90;;;3.65;65.34;102235.53;4989218;28;20030;-48
2021/03/03 02:00:29;;;;;;;10.45;5.43;;;4.10;99.90;;;3.78;64.42;102233.31;4989467;28;20034;-46
2021/03/03 02:02:55;;;;;;;11.00;5.80;;;4.20;99.90;;;3.95;63.67;102228.38;4989389;28;20435;-45
2021/03/03 02:05:21;;;;;;;10.80;6.20;;;4.40;99.90;;;3.95;63.70;102227.53;4989307;28;20084;-45
2021/03/03 02:08:07;;;;;;;11.88;6.50;;;4.50;99.90;;;3.96;63.80;102224.06;4989495;28;20030;-50
2021/03/03 02:10:36;;;;;;;11.85;5.93;;;4.50;99.90;;;3.95;63.24;102222.38;4988717;28;20113;-47
2021/03/03 02:13:10;;;;;;;12.75;5.57;;;4.50;99.90;;;3.93;63.41;102217.28;4989126;28;20174;-49
2021/03/03 02:15:40;;;;;;;10.70;5.60;;;4.50;99.90;;;3.84;63.76;102216.78;4989180;28;20038;-46
2021/03/03 02:18:10;;;;;;;14.10;8.15;;;4.40;99.90;;;3.71;64.06;102213.00;4989081;28;20551;-46
2021/03/03 02:21:27;;;;;;;12.68;7.38;;;4.30;99.90;;;3.62;64.69;102215.03;4971795;28;20245;-49
2021/03/03 02:23:58;;;;;;;15.15;8.57;;;4.30;99.90;;;3.63;64.51;102214.13;4965869;28;20050;-46
2021/03/03 02:26:34;;;;;;;15.82;7.47;;;4.30;99.90;;;3.64;64.29;102208.09;4988924;28;20743;-48
2021/03/03 02:29:09;;;;;;;13.25;6.78;;;4.30;99.90;;;4.12;62.33;102203.66;4988734;28;20395;-48
2021/03/03 02:31:37;;;;;;;17.15;9.30;;;4.50;99.90;;;3.87;63.14;102203.78;4988900;28;20561;-46
2021/03/03 02:34:05;;;;;;;18.05;9.40;;;4.50;99.90;;;3.56;64.67;102204.94;4971829;28;20069;-49
2021/03/03 02:36:32;;;;;;;21.15;11.48;;;4.30;99.90;;;3.36;65.39;102211.72;4989002;28;20039;-49
2021/03/03 02:38:59;;;;;;;19.60;11.48;;;4.10;99.90;;;3.17;66.34;102209.00;4971387;28;20073;-47
2021/03/03 02:43:58;;;;;;;12.80;8.38;;;3.90;99.90;;;3.64;64.16;102210.66;4928046;29;20060;-43
2021/03/03 02:46:24;;;;;;;15.23;7.80;;;4.10;99.90;;;3.69;63.63;102204.50;4930953;29;20040;-46
2021/03/03 02:48:50;;;;;;;12.68;6.35;;;4.10;99.90;;;3.81;63.37;102204.00;4913881;29;20034;-45
2021/03/03 02:51:16;;;;;;;13.80;6.22;;;4.30;99.90;;;3.88;63.24;102213.19;4931278;29;20038;-44
2021/03/03 02:53:43;;;;;;;14.43;6.63;;;4.40;99.90;;;4.10;62.17;102205.47;4931082;29;20118;-44
2021/03/03 02:56:09;;;;;;;9.77;4.45;;;4.50;99.90;;;4.35;61.48;102203.56;4930785;29;20364;-44
2021/03/03 02:58:36;;;;;;;8.00;4.40;;;4.70;99.90;;;4.64;60.42;102205.81;4914218;29;20040;-46
2021/03/03 03:01:07;;;;;;;9.10;4.40;;;5.00;99.50;;;4.52;61.10;102202.88;4930831;29;20039;-49
2021/03/03 03:04:01;;;;;;;8.75;4.85;;;5.00;99.00;;;4.59;60.56;102199.16;4931241;29;20403;-46
2021/03/03 03:06:40;;;;;;;7.63;4.45;;;5.10;98.60;;;4.69;59.99;102202.19;4930961;29;20044;-49
2021/03/03 03:09:11;;;;;;;9.13;5.60;;;5.20;97.90;;;4.65;60.21;102193.72;4914316;29;20095;-49
2021/03/03 03:11:51;;;;;;;7.78;4.68;;;5.20;97.70;;;4.45;60.89;102193.72;4913944;29;20061;-47
2021/03/03 03:14:27;;;;;;;10.70;5.65;;;5.10;97.90;;;4.47;60.33;102184.16;4930744;29;20479;-49
2021/03/03 03:16:56;;;;;;;8.88;5.00;;;5.00;97.80;;;4.55;60.15;102184.69;4913526;29;20454;-47
2021/03/03 03:19:35;;;;;;;7.45;4.28;;;5.10;97.40;;;4.61;60.07;102182.69;4930970;29;20036;-47
2021/03/03 03:22:02;;;;;;;10.65;6.43;;;5.10;97.20;;;4.43;60.78;102190.34;4932812;29;20035;-45
2021/03/03 03:24:29;;;;;;;9.98;6.15;;;5.10;97.30;;;4.13;61.79;102180.38;4917238;29;20511;-45
2021/03/03 03:26:58;;;;;;;11.98;6.38;;;4.80;98.30;;;3.81;63.04;102185.97;4917273;29;20027;-46
2021/03/03 03:29:24;;;;;;;12.40;6.45;;;4.60;99.30;;;3.72;63.17;102184.59;4934069;29;20032;-48
2021/03/03 03:31:51;;;;;;;12.27;5.78;;;4.40;99.90;;;3.64;63.46;102189.19;4917039;29;20063;-47
2021/03/03 03:34:18;;;;;;;8.93;5.15;;;4.30;99.90;;;3.80;62.59;102179.13;4933862;29;20035;-44
2021/03/03 03:36:45;;;;;;;9.43;5.13;;;4.30;99.90;;;3.82;62.49;102179.91;4916761;29;20027;-47
2021/03/03 03:39:13;;;;;;;9.63;5.60;;;4.30;99.90;;;3.92;61.92;102174.34;4916998;29;20079;-50
2021/03/03 03:41:41;;;;;;;10.48;5.03;;;4.40;99.80;;;4.05;61.40;102182.44;4933676;29;20044;-50
2021/03/03 03:44:10;;;;;;;12.15;5.32;;;4.50;99.30;;;3.92;61.83;102179.50;4933894;29;20439;-46
2021/03/03 03:46:39;;;;;;;12.50;6.60;;;4.50;99.30;;;3.82;62.03;102187.63;4933719;29;20031;-49
2021/03/03 03:49:05;;;;;;;11.75;6.85;;;4.40;99.50;;;3.82;62.16;102192.78;4933609;29;20062;-46
2021/03/03 03:51:32;;;;;;;13.15;6.22;;;4.40;99.60;;;3.79;62.13;102185.19;4933644;29;20027;-45
2021/03/03 03:53:59;;;;;;;16.75;8.93;;;4.50;99.80;;;3.65;62.88;102183.16;4933586;29;20070;-44
2021/03/03 03:56:25;;;;;;;13.27;7.10;;;4.30;99.90;;;3.46;63.39;102197.63;4933598;29;20468;-46
2021/03/03 03:58:51;;;;;;;15.23;7.93;;;4.10;99.90;;;3.52;63.18;102190.50;4933500;29;20044;-46
2021/03/03 04:01:17;;;;;;;15.75;8.52;;;4.10;99.90;;;3.40;63.57;102193.53;4933322;29;20039;-48
2021/03/03 04:03:43;;;;;;;13.98;6.72;;;4.10;99.90;;;3.33;63.85;102185.19;4933806;29;20032;-50
2021/03/03 04:06:08;;;;;;;13.20;7.82;;;4.00;99.90;;;3.25;64.06;102191.53;4933782;29;20043;-49
2021/03/03 04:08:34;;;;;;;12.65;7.05;;;3.90;99.90;;;3.13;64.52;102186.81;4933467;29;20082;-46
2021/03/03 04:11:00;;;;;;;13.82;6.90;;;3.80;99.90;;;3.10;64.57;102189.50;4933434;29;20470;-45
2021/03/03 04:13:27;;;;;;;11.20;5.38;;;3.70;99.90;;;3.23;64.30;102195.91;4933334;29;20036;-49
2021/03/03 04:15:52;;;;;;;10.10;4.88;;;3.80;99.90;;;3.48;63.33;102190.66;4933002;29;20499;-52
2021/03/03 04:18:18;;;;;;;11.48;5.93;;;3.90;99.90;;;3.77;62.24;102182.69;4933065;29;20186;-46
2021/03/03 04:20:45;;;;;;;8.13;5.07;;;4.20;99.90;;;3.61;62.80;102187.56;4933077;29;20432;-46
2021/03/03 04:23:11;;;;;;;11.23;5.95;;;4.20;99.90;;;3.53;63.03;102192.19;4933285;29;20114;-49
2021/03/03 04:25:38;;;;;;;16.65;5.80;;;4.10;99.90;;;3.59;62.80;102193.69;4932991;29;20419;-47
2021/03/03 04:28:05;;;;;;;14.35;5.95;;;4.10;99.90;;;3.64;62.58;102197.78;4933073;29;20041;-46
2021/03/03 04:30:33;;;;;;;10.52;5.22;;;4.10;99.90;;;3.63;62.85;102188.38;4915812;29;20036;-45
2021/03/03 04:32:59;;;;;;;8.65;5.10;;;4.20;99.90;;;3.82;62.80;102190.22;4932306;29;20541;-48
2021/03/03 04:35:25;;;;;;;9.63;4.47;;;4.30;99.90;;;3.81;62.53;102179.06;4933189;29;20168;-47
2021/03/03 04:37:51;;;;;;;11.73;4.70;;;4.30;99.90;;;4.01;62.38;102193.75;4932775;29;20558;-48
2021/03/03 04:40:18;;;;;;;14.15;4.70;;;4.40;99.90;;;4.05;62.25;102191.91;4932860;29;20059;-47
2021/03/03 04:42:44;;;;;;;7.50;4.90;;;4.50;99.90;;;4.05;62.52;102192.75;4932595;29;20051;-46
2021/03/03 04:45:12;;;;;;;13.35;4.65;;;4.50;99.90;;;4.09;62.14;102193.47;4932697;29;20042;-45
2021/03/03 04:47:39;;;;;;;13.93;4.65;;;4.60;99.90;;;4.08;62.33;102195.22;4933208;29;20034;-47
2021/03/03 04:50:08;;;;;;;7.55;4.57;;;4.60;99.90;;;4.15;61.93;102181.16;4915838;29;20043;-47
2021/03/03 04:52:35;;;;;;;9.35;4.75;;;4.70;99.90;;;4.14;62.06;102187.22;4915814;29;20036;-45
2021/03/03 04:55:02;;;;;;;7.05;4.60;;;4.70;99.90;;;4.08;62.17;102184.88;4932713;29;20043;-47
2021/03/03 04:57:28;;;;;;;14.90;5.40;;;4.60;99.90;;;4.03;62.13;102189.38;4932383;29;20047;-47
2021/03/03 04:59:54;;;;;;;8.90;4.15;;;4.60;99.90;;;4.08;61.77;102187.47;4915243;29;20024;-47
2021/03/03 05:02:20;;;;;;;9.30;4.90;;;4.60;99.80;;;4.10;62.07;102184.81;4932343;29;20036;-48
2021/03/03 05:04:46;;;;;;;8.23;4.03;;;4.70;99.70;;;4.13;61.43;102193.28;4932557;29;20035;-46
2021/03/03 05:07:13;;;;;;;10.73;4.63;;;4.70;99.30;;;4.13;61.33;102189.88;4932693;29;20122;-47
2021/03/03 05:09:39;;;;;;;8.05;4.32;;;4.70;99.20;;;4.10;61.47;102188.25;4932253;29;20122;-45
2021/03/03 05:12:06;;;;;;;8.50;4.82;;;4.60;99.10;;;4.11;61.28;102187.34;4932140;29;20048;-44
2021/03/03 05:14:32;;;;;;;11.10;4.65;;;4.70;98.90;;;4.06;61.66;102189.25;4932082;29;20044;-45
2021/03/03 05:16:58;;;;;;;11.35;4.32;;;4.60;99.20;;;4.08;61.81;102186.63;4932441;29;20399;-46
2021/03/03 05:19:24;;;;;;;8.20;5.07;;;4.60;99.20;;;4.07;61.62;102180.63;4932265;29;20043;-48
2021/03/03 05:21:50;;;;;;;9.25;4.95;;;4.60;99.30;;;4.04;61.69;102191.06;4932120;29;20042;-47
2021/03/03 05:24:16;;;;;;;9.07;4.82;;;4.60;99.40;;;4.01;62.28;102188.59;4932370;29;20594;-48
2021/03/03 05:26:42;;;;;;;9.93;5.43;;;4.60;99.60;;;3.98;62.12;102189.56;4932204;29;20040;-45
2021/03/03 05:29:08;;;;;;;8.40;4.35;;;4.50;99.70;;;3.91;62.87;102180.38;4931971;29;20402;-45
2021/03/03 05:31:35;;;;;;;9.65;4.45;;;4.50;99.90;;;3.96;62.48;102182.78;4931854;29;20130;-48
2021/03/03 05:34:01;;;;;;;9.25;4.10;;;4.50;99.90;;;3.92;62.32;102191.53;4932098;29;20028;-49
2021/03/03 05:36:27;;;;;;;8.27;4.70;;;4.50;99.90;;;4.03;62.28;102180.81;4931735;29;20396;-48
2021/03/03 05:38:53;;;;;;;8.27;4.38;;;4.50;99.90;;;3.94;62.92;102184.59;4931699;29;20043;-45
2021/03/03 05:41:25;;;;;;;10.23;4.82;;;4.50;99.90;;;3.92;62.77;102183.81;4931692;29;20559;-47
2021/03/03 05:43:51;;;;;;;7.20;4.53;;;4.50;99.90;;;3.89;62.67;102189.09;4913961;29;20086;-49
2021/03/03 05:46:18;;;;;;;9.65;4.68;;;4.50;99.90;;;3.97;62.37;102184.47;4931199;29;20108;-46
2021/03/03 05:48:54;;;;;;;11.77;5.35;;;4.50;99.90;;;3.97;62.45;102182.72;4914345;29;20488;-47
2021/03/03 05:51:24;;;;;;;7.97;4.47;;;4.50;99.90;;;4.03;62.13;102184.22;4931550;29;20435;-46
2021/03/03 05:53:51;;;;;;;7.00;3.97;;;4.50;99.90;;;4.00;62.54;102181.78;4931301;29;20039;-46
2021/03/03 05:56:22;;;;;;;12.43;4.15;;;4.50;99.90;;;4.01;62.46;102175.72;4931318;29;20102;-48
2021/03/03 05:58:49;;;;;;;12.65;5.93;;;4.60;99.90;;;3.97;63.53;102182.72;4914234;29;20155;-49
2021/03/03 06:01:16;;;;;;;12.15;4.70;;;4.50;99.90;;;3.99;62.38;102185.25;4931588;29;20035;-48
2021/03/03 06:03:42;;;;;;;10.80;6.07;;;4.50;99.90;;;3.99;62.63;102183.50;4931162;29;20464;-50
2021/03/03 06:06:09;;;;;;;13.32;5.00;;;4.50;99.90;;;4.03;62.26;102178.22;4931407;29;20064;-45
2021/03/03 06:08:35;;;;;;;9.95;4.90;;;4.60;99.90;;;4.11;61.81;102192.50;4931125;29;20038;-46
2021/03/03 06:11:04;;;;;;;14.93;6.88;;;4.60;99.50;;;4.18;62.06;102188.78;4914314;29;20503;-46
2021/03/03 06:13:30;;;;;;;8.73;4.78;;;4.70;99.90;;;4.22;61.79;102189.50;4931319;29;20523;-50
2021/03/03 06:15:57;;;;;;;13.15;5.43;;;4.80;99.40;;;4.23;61.77;102186.88;4931217;29;20032;-47
2021/03/03 06:18:24;;;;;;;9.65;5.00;;;4.80;99.80;;;4.30;61.68;102190.84;4931277;29;20432;-47
2021/03/03 06:20:55;;;;;;;16.58;5.35;;;4.80;99.10;;;4.41;61.37;102194.72;4930996;29;20032;-47
2021/03/03 06:23:27;;;;;;;9.68;4.43;;;4.90;98.90;;;4.47;60.78;102187.59;4930901;29;20122;-50
2021/03/03 06:25:56;;;;;;;11.85;4.57;;;5.00;98.10;;;4.52;60.57;102193.41;4931459;29;20088;-48
2021/03/03 06:28:43;;;;;;;9.05;4.55;;;5.10;97.90;;;4.61;60.52;102194.75;4931291;29;20047;-47
2021/03/03 06:31:28;;;;;;;7.55;4.82;;;5.10;97.80;;;4.70;61.01;102196.13;4931118;29;20078;-46
2021/03/03 06:34:10;;;;;;;10.93;4.72;;;5.20;98.20;;;4.74;59.99;102188.16;4931361;29;20506;-45
2021/03/03 06:36:39;;;;;;;8.52;5.20;;;5.30;96.90;;;4.78;60.15;102200.03;4930922;29;20039;-50
2021/03/03 06:39:31;;;;;;;11.07;5.25;;;5.30;97.30;;;4.82;60.64;102203.31;4913830;29;20035;-46
2021/03/03 06:41:59;;;;;;;8.85;4.22;;;5.40;97.20;;;4.87;59.93;102204.81;4930524;29;20147;-49
2021/03/03 06:44:54;;;;;;;9.60;5.28;;;5.60;96.50;;;4.97;59.42;102198.34;4931130;29;20042;-45
2021/03/03 06:47:21;;;;;;;12.63;5.47;;;5.70;95.70;;;5.07;59.56;102208.28;4899756;29;20082;-45
2021/03/03 06:49:48;;;;;;;7.75;4.75;;;5.70;95.60;;;5.07;60.51;102198.78;4930948;29;20032;-46
2021/03/03 06:52:14;;;;;;;14.18;4.22;;;5.60;96.30;;;5.10;59.29;102190.06;4930780;29;20510;-48
2021/03/03 06:54:40;;;;;;;14.18;5.70;;;5.70;95.30;;;5.16;58.96;102197.56;4914021;29;20071;-45
2021/03/03 06:57:12;;;;;;;9.85;5.93;;;5.70;95.20;;;5.25;58.32;102202.28;4933570;29;20574;-44
2021/03/03 06:59:44;;;;;;;9.63;4.88;;;5.80;94.30;;;5.21;57.83;102195.56;4949153;29;20149;-44
2021/03/03 07:02:12;;;;;;;11.93;5.13;;;5.80;93.90;;;5.24;58.22;102198.03;4934381;29;20047;-45
2021/03/03 07:04:45;;;;;;;10.52;5.18;;;5.80;94.00;;;5.37;57.01;102203.50;4934679;29;20387;-44
2021/03/03 07:07:19;;;;;;;8.68;4.63;;;5.90;92.90;;;5.43;57.26;102205.81;4934623;29;20044;-47
2021/03/03 07:09:59;;;;;;;8.13;4.88;;;5.90;92.90;;;5.48;57.35;102211.63;4934540;29;20474;-45
2021/03/03 07:12:30;;;;;;;9.98;4.70;;;6.00;92.90;;;5.55;57.29;102208.69;4917079;29;20062;-48
2021/03/03 07:15:03;;;;;;;10.68;5.15;;;6.10;92.60;;;5.58;56.74;102202.53;4934127;29;20031;-47
2021/03/03 07:17:41;;;;;;;10.38;5.72;;;6.00;92.20;;;5.68;56.59;102202.00;4934480;29;20171;-47
2021/03/03 07:20:10;;;;;;;7.53;4.20;;;6.20;92.00;;;5.82;56.02;102201.38;4916790;29;20087;-47
2021/03/03 07:22:39;;;;;;;7.95;4.63;;;6.30;91.40;;;6.02;55.79;102197.06;4934417;29;20035;-50
2021/03/03 07:25:12;;;;;;;11.15;4.88;;;6.40;90.90;;;6.15;55.15;102198.97;4934049;29;20051;-49
2021/03/03 07:27:40;;;;;;;10.23;5.05;;;6.60;90.50;;;6.27;55.31;102198.38;4928173;29;20035;-50
2021/03/03 07:30:15;;;;;;;8.88;4.60;;;6.80;90.20;;;6.32;54.18;102193.81;4914931;29;20028;-48
2021/03/03 07:32:42;;;;;;;10.02;4.53;;;6.80;88.60;;;6.51;54.45;102195.50;4923696;29;20040;-50
2021/03/03 07:35:11;;;;;;;7.90;4.53;;;6.90;88.10;;;6.61;53.92;102194.13;4933913;29;20040;-47
2021/03/03 07:37:55;;;;;;;9.30;5.40;;;7.00;85.90;;;6.77;53.07;102196.78;4931854;29;20047;-50
2021/03/03 07:40:26;;;;;;;9.65;5.15;;;7.20;85.00;;;6.93;52.94;102202.84;4931992;29;20255;-50
2021/03/03 07:42:55;;;;;;;11.65;4.95;;;7.30;84.20;;;6.95;53.11;102196.69;4931527;29;20095;-48
2021/03/03 07:45:22;;;;;;;9.95;5.22;;;7.40;83.60;;;7.07;53.19;102194.38;4932691;29;20047;-51
2021/03/03 07:47:50;;;;;;;8.25;5.43;;;7.50;83.60;;;7.08;52.70;102194.28;4940860;29;20050;-45
2021/03/03 07:50:22;;;;;;;9.13;5.22;;;7.60;82.80;;;7.29;52.50;102193.16;4952576;29;20047;-50
2021/03/03 07:52:54;;;;;;;10.27;5.25;;;7.70;83.40;;;7.33;52.33;102193.81;4932832;29;20031;-49
2021/03/03 07:55:22;;;;;;;7.30;4.90;;;7.80;81.20;;;7.44;52.52;102198.44;4932354;29;20040;-44
2021/03/03 07:57:51;;;;;;;10.35;4.88;;;7.90;81.80;;;7.67;52.38;102195.41;4932780;29;20557;-49
2021/03/03 08:00:33;;;;;;;10.68;4.88;;;8.10;82.00;;;7.71;51.35;102198.69;4931454;29;20058;-49
2021/03/03 08:02:58;;;;;;;12.50;4.97;;;8.20;79.90;;;7.96;51.65;102192.06;4931611;29;20044;-50
2021/03/03 08:05:34;;;;;;;10.25;5.65;;;8.30;80.00;;;8.07;50.79;102196.63;4931922;29;20032;-50
2021/03/03 08:08:28;;;;;;;10.68;4.95;;;8.50;78.50;;;8.15;49.86;102186.66;4912128;29;20032;-44
2021/03/03 08:11:01;;;;;;;13.80;4.63;;;8.50;77.60;;;8.33;50.08;102182.22;4919578;29;20043;-47
2021/03/03 08:13:38;;;;;;;10.38;5.05;;;8.70;76.60;;;8.48;49.31;102178.75;4931035;29;20171;-45
2021/03/03 08:16:07;;;;;;;8.95;4.68;;;8.90;75.40;;;8.44;49.76;102182.44;4933112;29;20290;-46
2021/03/03 08:18:37;;;;;;;7.68;5.10;;;8.90;74.50;;;8.70;48.49;102178.28;4933193;29;20040;-45
2021/03/03 08:21:09;;;;;;;11.82;5.00;;;9.10;74.10;;;8.84;48.58;102180.91;4933367;29;20086;-46
2021/03/03 08:23:35;;;;;;;8.15;5.00;;;9.20;73.10;;;9.10;48.57;102186.28;4932968;29;20074;-50
2021/03/03 08:26:28;;;;;;;9.30;5.22;;;9.40;73.50;;;9.09;47.24;102189.81;4932688;29;20078;-45
2021/03/03 08:29:18;;;;;;;7.43;4.85;;;9.50;71.70;;;9.37;47.19;102186.38;4909596;29;20043;-49
2021/03/03 08:31:44;;;;;;;9.90;4.72;;;9.70;70.90;;;9.57;47.55;102192.00;4933319;29;20036;-46
2021/03/03 08:34:10;;;;;;;12.13;5.35;;;10.00;70.30;;;9.80;46.95;102182.75;4932790;29;20028;-47
2021/03/03 08:36:37;;;;;;;6.68;4.25;;;10.10;70.00;;;9.91;46.66;102175.09;4932693;29;20139;-45
2021/03/03 08:39:02;;;;;;;7.30;4.20;;;10.30;68.30;;;10.03;46.11;102173.44;4915574;29;20050;-45
2021/03/03 08:41:35;;;;;;;8.05;4.28;;;10.40;67.40;;;10.15;44.80;102179.63;4932558;29;20040;-46
2021/03/03 08:44:17;;;;;;;9.90;5.03;;;10.60;66.00;;;10.29;43.81;102175.22;4932851;29;20052;-48
2021/03/03 08:46:48;;;;;;;11.98;4.72;;;10.70;65.60;;;10.39;44.64;102175.47;4932529;29;20032;-46
2021/03/03 08:49:14;;;;;;;7.60;4.40;;;10.80;65.70;;;10.52;44.51;102172.84;4915400;29;20436;-45
2021/03/03 08:51:46;;;;;;;11.82;5.43;;;10.90;64.20;;;10.57;43.96;102178.59;4932503;29;20049;-49
2021/03/03 08:54:16;;;;;;;9.88;4.53;;;11.00;63.50;;;10.76;43.72;102175.59;4932413;29;20103;-48
2021/03/03 08:56:53;;;;;;;8.50;6.03;;;11.10;63.50;;;10.99;42.50;102169.59;4932480;29;20043;-47
2021/03/03 08:59:29;;;;;;;10.27;3.97;;;11.30;63.40;;;11.24;42.65;102161.75;4932280;29;20087;-44
2021/03/03 09:02:18;;;;;;;6.07;4.40;;;11.60;63.20;;;11.38;41.15;102171.19;4932053;29;20563;-48
2021/03/03 09:04:47;;;;;;;10.55;4.35;;;11.80;61.00;;;11.44;42.77;102164.72;4932416;29;20706;-48
2021/03/03 09:07:20;;;;;;;10.82;4.80;;;11.90;60.90;;;11.60;41.88;102167.91;4932276;29;20504;-48
2021/03/03 09:10:01;;;;;;;12.57;4.70;;;12.00;60.50;;;11.98;41.27;102165.16;4932068;29;20087;-46
2021/03/03 09:12:37;;;;;;;6.50;3.92;;;12.20;60.40;;;12.29;40.94;102164.53;4932153;29;20377;-47
2021/03/03 09:15:06;;;;;;;9.48;4.25;;;12.60;59.80;;;12.23;41.25;102164.19;4932089;29;20047;-52
2021/03/03 09:17:35;;;;;;;7.28;4.25;;;12.70;58.70;;;12.32;41.07;102160.88;4931861;29;20063;-46
2021/03/03 09:20:04;;;;;;;8.65;4.35;;;12.70;58.50;;;12.46;40.54;102159.84;4931542;29;20043;-49
2021/03/03 09:22:34;;;;;;;6.95;3.92;;;12.90;58.20;;;12.62;40.10;102160.34;4932114;29;20031;-47
2021/03/03 09:25:20;;;;;;;11.88;4.28;;;13.00;57.70;;;12.68;38.96;102154.66;4931767;29;20039;-48
2021/03/03 09:27:56;;;;;;;9.90;4.68;;;13.10;57.20;;;12.76;39.16;102148.84;4910769;29;20075;-46
2021/03/03 09:30:36;;;;;;;9.45;4.57;;;13.10;56.50;;;13.08;38.75;102148.97;4912368;29;20047;-47
2021/03/03 09:33:06;;;;;;;12.15;4.35;;;13.30;56.90;;;13.50;38.90;102152.63;4912589;29;20044;-47
2021/03/03 09:35:33;;;;;;;9.13;4.97;;;13.70;56.70;;;13.58;38.69;102144.97;4912670;29;20039;-47
2021/03/03 09:38:00;;;;;;;8.20;4.97;;;13.90;55.70;;;13.61;38.73;102152.59;4912611;29;20436;-49
2021/03/03 09:40:32;;;;;;;10.00;4.85;;;14.00;55.20;;;13.79;37.86;102147.63;4895551;29;20056;-47
2021/03/03 09:42:59;;;;;;;11.98;5.93;;;14.10;55.30;;;13.69;38.63;102144.94;4912265;29;20060;-50
2021/03/03 09:45:27;;;;;;;10.85;6.20;;;14.10;55.10;;;13.95;38.17;102148.06;4912393;29;20040;-49
2021/03/03 09:47:56;;;;;;;15.27;6.13;;;14.30;55.20;;;14.08;38.12;102151.34;4912310;29;20496;-47
2021/03/03 09:50:30;;;;;;;11.15;6.75;;;14.50;54.50;;;14.35;37.38;102135.09;4912049;29;20503;-47
2021/03/03 09:52:57;;;;;;;14.43;7.22;;;14.70;54.00;;;14.61;37.02;102132.94;4895243;29;20177;-46
2021/03/03 09:55:38;;;;;;;14.05;7.47;;;14.90;53.90;;;14.63;36.72;102138.88;4912485;29;20500;-45
2021/03/03 09:58:04;;;;;;;12.98;7.47;;;14.90;53.00;;;14.77;36.89;102138.50;4944303;29;20418;-45
2021/03/03 10:00:36;;;;;;;13.27;7.55;;;15.10;53.20;;;14.69;36.74;102134.88;4919792;29;20555;-46
2021/03/03 10:03:13;;;;;;;12.93;6.53;;;15.10;52.90;;;14.62;36.14;102142.47;4947652;29;20097;-48
2021/03/03 10:05:40;;;;;;;13.75;7.53;;;15.00;52.50;;;14.69;36.77;102135.72;4933347;29;20070;-47
2021/03/03 10:08:09;;;;;;;13.23;7.30;;;15.00;52.60;;;14.89;36.24;102142.72;4927255;29;20043;-49
2021/03/03 10:10:53;;;;;;;12.55;7.40;;;15.20;52.20;;;14.81;35.23;102139.91;4921950;29;20043;-49
2021/03/03 10:13:21;;;;;;;14.77;7.25;;;15.20;50.90;;;14.74;36.18;102136.16;4929964;29;20118;-50
2021/03/03 10:15:48;;;;;;;15.15;8.20;;;15.20;51.40;;;14.79;36.00;102136.59;4929902;29;20042;-46
2021/03/03 10:18:14;;;;;;;11.95;7.43;;;15.20;51.40;;;14.89;36.36;102134.84;4912881;29;20059;-48
2021/03/03 10:20:50;;;;;;;12.27;7.15;;;15.30;51.40;;;14.94;35.69;102132.66;4930959;29;20078;-48
2021/03/03 10:23:22;;;;;;;;;;;15.40;51.10;;;14.91;34.06;102135.53;4931604;29;20443;-47
2021/03/03 10:26:05;;;;;;;11.35;6.72;;;15.40;48.80;;;15.13;36.14;102123.16;4931089;29;19970;-46
2021/03/03 10:28:31;;;;;;;13.73;6.95;;;15.50;51.10;;;15.30;35.79;102125.16;4931155;29;20044;-47
2021/03/03 10:31:02;;;;;;;9.82;6.20;;;15.70;51.20;;;15.45;34.66;102115.94;4932252;29;20114;-45
2021/03/03 10:33:38;;;;;;;9.68;5.97;;;15.80;50.50;;;15.17;33.75;102111.44;4934911;29;20069;-47